GIA999 VVDN-VVTS
Flight info
| Callsign | GIA999 |
|---|---|
| Flight time | 1h 3m |
| Altitude | 36000 |
| Route | SADIN1G SADIN Q1 DOVIN DALAP2H |
| Aircraft | B738/M-SDE2E3FGHIRWXY/LB1 |
Departure
| Time | 2026-04-21 14:43 |
|---|---|
| Airport | Da Nang International Airport (VVDN) |
Arrival
| Time | 2026-04-21 15:47 |
|---|---|
| Airport | Tan Son Nhat International Airport (VVTS) |
| Time | Latitude | Longitude | Altitude | Speed | Heading |
|---|---|---|---|---|---|
| 2026-04-21 14:13 | 16.05489 | 108.20162 | 34 ft | 0 kts | 82° |
| 2026-04-21 14:29 | 16.05488 | 108.20150 | 34 ft | 2 kts | 83° |
| 2026-04-21 14:29 | 16.05486 | 108.20133 | 30 ft | 2 kts | 84° |
| 2026-04-21 14:30 | 16.05485 | 108.20116 | 30 ft | 2 kts | 88° |
| 2026-04-21 14:30 | 16.05485 | 108.20099 | 30 ft | 2 kts | 100° |
| 2026-04-21 14:30 | 16.05491 | 108.20083 | 32 ft | 2 kts | 153° |
| 2026-04-21 14:30 | 16.05501 | 108.20080 | 30 ft | 1 kts | 173° |
| 2026-04-21 14:31 | 16.05502 | 108.20080 | 30 ft | 0 kts | 173° |
| 2026-04-21 14:31 | 16.05501 | 108.20080 | 30 ft | 0 kts | 173° |
| 2026-04-21 14:32 | 16.05500 | 108.20080 | 30 ft | 0 kts | 173° |
| 2026-04-21 14:32 | 16.05498 | 108.20080 | 33 ft | 0 kts | 174° |
| 2026-04-21 14:33 | 16.05496 | 108.20080 | 33 ft | 1 kts | 174° |
| 2026-04-21 14:33 | 16.05487 | 108.20082 | 32 ft | 2 kts | 172° |
| 2026-04-21 14:33 | 16.05461 | 108.20086 | 31 ft | 5 kts | 171° |
| 2026-04-21 14:33 | 16.05393 | 108.20097 | 33 ft | 16 kts | 172° |
| 2026-04-21 14:34 | 16.05281 | 108.20114 | 33 ft | 16 kts | 172° |
| 2026-04-21 14:34 | 16.05173 | 108.20130 | 33 ft | 13 kts | 171° |
| 2026-04-21 14:34 | 16.05086 | 108.20144 | 33 ft | 13 kts | 172° |
| 2026-04-21 14:34 | 16.05000 | 108.20156 | 33 ft | 12 kts | 172° |
| 2026-04-21 14:35 | 16.04931 | 108.20126 | 31 ft | 12 kts | 239° |
| 2026-04-21 14:35 | 16.04853 | 108.20115 | 32 ft | 13 kts | 172° |
| 2026-04-21 14:35 | 16.04737 | 108.20134 | 33 ft | 21 kts | 171° |
| 2026-04-21 14:35 | 16.04562 | 108.20158 | 32 ft | 29 kts | 172° |
| 2026-04-21 14:36 | 16.04368 | 108.20186 | 33 ft | 28 kts | 172° |
| 2026-04-21 14:36 | 16.04183 | 108.20213 | 33 ft | 26 kts | 172° |
| 2026-04-21 14:36 | 16.04008 | 108.20238 | 34 ft | 24 kts | 172° |
| 2026-04-21 14:36 | 16.03846 | 108.20262 | 34 ft | 23 kts | 172° |
| 2026-04-21 14:37 | 16.03690 | 108.20284 | 33 ft | 22 kts | 172° |
| 2026-04-21 14:37 | 16.03539 | 108.20305 | 33 ft | 22 kts | 172° |
| 2026-04-21 14:37 | 16.03392 | 108.20326 | 33 ft | 21 kts | 172° |
| 2026-04-21 14:37 | 16.03250 | 108.20348 | 32 ft | 20 kts | 171° |
| 2026-04-21 14:38 | 16.03111 | 108.20368 | 32 ft | 20 kts | 173° |
| 2026-04-21 14:38 | 16.02989 | 108.20377 | 32 ft | 13 kts | 194° |
| 2026-04-21 14:38 | 16.02935 | 108.20338 | 30 ft | 0 kts | 238° |
| 2026-04-21 14:40 | 16.02925 | 108.20314 | 31 ft | 9 kts | 254° |
| 2026-04-21 14:40 | 16.02956 | 108.20253 | 30 ft | 11 kts | 336° |
| 2026-04-21 14:40 | 16.03004 | 108.20243 | 30 ft | 0 kts | 351° |
| 2026-04-21 14:42 | 16.03005 | 108.20242 | 30 ft | 2 kts | 351° |
| 2026-04-21 14:42 | 16.03110 | 108.20227 | 30 ft | 49 kts | 352° |
| 2026-04-21 14:43 | 16.03742 | 108.20132 | 34 ft | 132 kts | 352° |
| 2026-04-21 14:43 | 16.04857 | 108.19975 | 237 ft | 183 kts | 353° |
| 2026-04-21 14:43 | 16.06132 | 108.19795 | 1280 ft | 186 kts | 352° |
| 2026-04-21 14:43 | 16.07520 | 108.19688 | 1716 ft | 219 kts | 359° |
| 2026-04-21 14:44 | 16.09140 | 108.19660 | 1935 ft | 246 kts | 359° |
| 2026-04-21 14:44 | 16.10887 | 108.19631 | 2418 ft | 259 kts | 359° |
| 2026-04-21 14:44 | 16.12757 | 108.19591 | 2861 ft | 275 kts | 359° |
| 2026-04-21 14:44 | 16.14665 | 108.19720 | 3747 ft | 275 kts | 17° |
| 2026-04-21 14:45 | 16.16321 | 108.20683 | 4580 ft | 278 kts | 46° |
| 2026-04-21 14:45 | 16.17317 | 108.22395 | 5367 ft | 279 kts | 74° |
| 2026-04-21 14:45 | 16.17592 | 108.24394 | 6194 ft | 282 kts | 89° |
| 2026-04-21 14:45 | 16.17599 | 108.26448 | 6960 ft | 286 kts | 91° |
| 2026-04-21 14:46 | 16.17592 | 108.28550 | 7769 ft | 288 kts | 90° |
| 2026-04-21 14:46 | 16.17599 | 108.30616 | 8568 ft | 290 kts | 90° |
| 2026-04-21 14:46 | 16.17618 | 108.32725 | 9365 ft | 293 kts | 90° |
| 2026-04-21 14:46 | 16.17567 | 108.34883 | 10115 ft | 297 kts | 101° |
| 2026-04-21 14:47 | 16.16808 | 108.36842 | 10762 ft | 301 kts | 127° |
| 2026-04-21 14:47 | 16.15256 | 108.38319 | 11248 ft | 313 kts | 152° |
| 2026-04-21 14:47 | 16.13107 | 108.38936 | 11411 ft | 334 kts | 178° |
| 2026-04-21 14:47 | 16.10728 | 108.38969 | 11748 ft | 348 kts | 181° |
| 2026-04-21 14:48 | 16.08282 | 108.38950 | 12325 ft | 354 kts | 181° |
| 2026-04-21 14:48 | 16.05809 | 108.38948 | 13004 ft | 357 kts | 181° |
| 2026-04-21 14:48 | 16.03314 | 108.38964 | 13668 ft | 360 kts | 180° |
| 2026-04-21 14:48 | 16.00794 | 108.38992 | 14224 ft | 364 kts | 180° |
| 2026-04-21 14:49 | 15.98249 | 108.39025 | 14778 ft | 368 kts | 180° |
| 2026-04-21 14:49 | 15.95668 | 108.39060 | 15334 ft | 372 kts | 180° |
| 2026-04-21 14:49 | 15.93061 | 108.39095 | 15880 ft | 376 kts | 180° |
| 2026-04-21 14:49 | 15.90427 | 108.39129 | 16426 ft | 380 kts | 180° |
| 2026-04-21 14:50 | 15.88670 | 108.39152 | 16775 ft | 383 kts | 180° |
| 2026-04-21 14:50 | 15.85076 | 108.39197 | 17479 ft | 388 kts | 180° |
| 2026-04-21 14:50 | 15.82363 | 108.39231 | 18015 ft | 392 kts | 180° |
| 2026-04-21 14:50 | 15.79626 | 108.39266 | 18494 ft | 395 kts | 180° |
| 2026-04-21 14:51 | 15.76870 | 108.39301 | 18955 ft | 398 kts | 180° |
| 2026-04-21 14:51 | 15.74086 | 108.39337 | 19394 ft | 401 kts | 180° |
| 2026-04-21 14:51 | 15.71283 | 108.39374 | 19837 ft | 404 kts | 179° |
| 2026-04-21 14:51 | 15.68466 | 108.39410 | 20292 ft | 407 kts | 179° |
| 2026-04-21 14:52 | 15.65622 | 108.39447 | 20740 ft | 410 kts | 179° |
| 2026-04-21 14:52 | 15.62760 | 108.39484 | 21170 ft | 413 kts | 179° |
| 2026-04-21 14:52 | 15.59880 | 108.39521 | 21618 ft | 415 kts | 179° |
| 2026-04-21 14:52 | 15.56983 | 108.39558 | 22040 ft | 418 kts | 179° |
| 2026-04-21 14:53 | 15.54076 | 108.39359 | 22433 ft | 421 kts | 193° |
| 2026-04-21 14:53 | 15.51325 | 108.38320 | 22856 ft | 423 kts | 204° |
| 2026-04-21 14:53 | 15.48679 | 108.37057 | 23263 ft | 426 kts | 205° |
| 2026-04-21 14:53 | 15.45993 | 108.35741 | 23587 ft | 429 kts | 205° |
| 2026-04-21 14:54 | 15.43284 | 108.34414 | 23901 ft | 432 kts | 205° |
| 2026-04-21 14:54 | 15.40518 | 108.33075 | 24253 ft | 434 kts | 205° |
| 2026-04-21 14:54 | 15.37813 | 108.31779 | 24587 ft | 436 kts | 205° |
| 2026-04-21 14:54 | 15.35049 | 108.30466 | 24908 ft | 438 kts | 205° |
| 2026-04-21 14:55 | 15.32265 | 108.29150 | 25220 ft | 441 kts | 205° |
| 2026-04-21 14:55 | 15.29465 | 108.27828 | 25539 ft | 443 kts | 205° |
| 2026-04-21 14:55 | 15.26651 | 108.26500 | 25858 ft | 445 kts | 205° |
| 2026-04-21 14:55 | 15.23821 | 108.25165 | 26167 ft | 448 kts | 205° |
| 2026-04-21 14:56 | 15.20983 | 108.23826 | 26473 ft | 450 kts | 205° |
| 2026-04-21 14:56 | 15.18127 | 108.22477 | 26768 ft | 453 kts | 205° |
| 2026-04-21 14:56 | 15.15250 | 108.21120 | 27059 ft | 455 kts | 205° |
| 2026-04-21 14:56 | 15.12363 | 108.19758 | 27347 ft | 457 kts | 205° |
| 2026-04-21 14:57 | 15.09453 | 108.18400 | 27636 ft | 460 kts | 202° |
| 2026-04-21 14:57 | 15.06361 | 108.17557 | 27865 ft | 464 kts | 185° |
| 2026-04-21 14:57 | 15.03134 | 108.17422 | 28186 ft | 464 kts | 181° |
| 2026-04-21 14:57 | 14.99898 | 108.17386 | 28461 ft | 467 kts | 180° |
| 2026-04-21 14:58 | 14.96642 | 108.17369 | 28694 ft | 470 kts | 180° |
| 2026-04-21 14:58 | 14.93364 | 108.17343 | 28936 ft | 472 kts | 180° |
| 2026-04-21 14:58 | 14.91142 | 108.17316 | 29118 ft | 473 kts | 181° |
| 2026-04-21 14:58 | 14.87888 | 108.17263 | 29369 ft | 475 kts | 181° |
| 2026-04-21 14:59 | 14.84575 | 108.17197 | 29637 ft | 477 kts | 181° |
| 2026-04-21 14:59 | 14.81253 | 108.17125 | 29887 ft | 479 kts | 181° |
| 2026-04-21 14:59 | 14.77914 | 108.17050 | 30102 ft | 481 kts | 181° |
| 2026-04-21 14:59 | 14.74561 | 108.16974 | 30298 ft | 483 kts | 181° |
| 2026-04-21 15:00 | 14.71197 | 108.16899 | 30492 ft | 484 kts | 181° |
| 2026-04-21 15:00 | 14.67828 | 108.16825 | 30686 ft | 486 kts | 181° |
| 2026-04-21 15:00 | 14.64443 | 108.16751 | 30874 ft | 487 kts | 181° |
| 2026-04-21 15:00 | 14.61048 | 108.16677 | 31056 ft | 489 kts | 181° |
| 2026-04-21 15:01 | 14.57640 | 108.16603 | 31246 ft | 491 kts | 181° |
| 2026-04-21 15:01 | 14.54220 | 108.16529 | 31447 ft | 491 kts | 181° |
| 2026-04-21 15:01 | 14.50809 | 108.16455 | 31746 ft | 491 kts | 181° |
| 2026-04-21 15:01 | 14.47392 | 108.16380 | 32023 ft | 489 kts | 181° |
| 2026-04-21 15:02 | 14.43989 | 108.16306 | 32277 ft | 490 kts | 181° |
| 2026-04-21 15:02 | 14.40580 | 108.16235 | 32519 ft | 490 kts | 181° |
| 2026-04-21 15:02 | 14.37169 | 108.16168 | 32784 ft | 490 kts | 181° |
| 2026-04-21 15:02 | 14.33763 | 108.16102 | 33054 ft | 490 kts | 181° |
| 2026-04-21 15:03 | 14.30360 | 108.16035 | 33296 ft | 490 kts | 181° |
| 2026-04-21 15:03 | 14.26947 | 108.15967 | 33544 ft | 490 kts | 181° |
| 2026-04-21 15:03 | 14.23535 | 108.15896 | 33823 ft | 490 kts | 181° |
| 2026-04-21 15:03 | 14.20129 | 108.15824 | 34087 ft | 489 kts | 181° |
| 2026-04-21 15:04 | 14.16728 | 108.15752 | 34332 ft | 489 kts | 181° |
| 2026-04-21 15:04 | 14.13327 | 108.15680 | 34587 ft | 488 kts | 181° |
| 2026-04-21 15:04 | 14.09939 | 108.15608 | 34858 ft | 487 kts | 181° |
| 2026-04-21 15:04 | 14.06556 | 108.15537 | 35110 ft | 486 kts | 181° |
| 2026-04-21 15:05 | 14.03176 | 108.15467 | 35371 ft | 485 kts | 181° |
| 2026-04-21 15:05 | 13.96446 | 108.15322 | 35848 ft | 483 kts | 181° |
| 2026-04-21 15:05 | 13.93077 | 108.15243 | 35928 ft | 486 kts | 181° |
| 2026-04-21 15:06 | 13.86313 | 108.15083 | 35938 ft | 485 kts | 181° |
| 2026-04-21 15:06 | 13.79594 | 108.14925 | 35925 ft | 481 kts | 181° |
| 2026-04-21 15:07 | 13.72918 | 108.14770 | 35920 ft | 479 kts | 181° |
| 2026-04-21 15:07 | 13.66266 | 108.14615 | 35916 ft | 477 kts | 181° |
| 2026-04-21 15:08 | 13.59670 | 108.14462 | 35916 ft | 477 kts | 181° |
| 2026-04-21 15:08 | 13.53027 | 108.14311 | 35915 ft | 478 kts | 181° |
| 2026-04-21 15:09 | 13.46366 | 108.14167 | 35909 ft | 480 kts | 181° |
| 2026-04-21 15:09 | 13.39688 | 108.14022 | 35911 ft | 481 kts | 181° |
| 2026-04-21 15:10 | 13.32978 | 108.13875 | 35909 ft | 483 kts | 181° |
| 2026-04-21 15:10 | 13.26248 | 108.13717 | 35908 ft | 484 kts | 181° |
| 2026-04-21 15:11 | 13.19500 | 108.13554 | 35909 ft | 485 kts | 180° |
| 2026-04-21 15:11 | 13.12748 | 108.13393 | 35908 ft | 486 kts | 180° |
| 2026-04-21 15:12 | 13.05993 | 108.13232 | 35905 ft | 485 kts | 180° |
| 2026-04-21 15:12 | 12.99254 | 108.13072 | 35906 ft | 484 kts | 180° |
| 2026-04-21 15:13 | 12.92520 | 108.12912 | 35910 ft | 483 kts | 180° |
| 2026-04-21 15:13 | 12.85811 | 108.12753 | 35905 ft | 481 kts | 180° |
| 2026-04-21 15:14 | 12.79121 | 108.12594 | 35908 ft | 480 kts | 180° |
| 2026-04-21 15:14 | 12.72459 | 108.12436 | 35907 ft | 479 kts | 180° |
| 2026-04-21 15:15 | 12.65806 | 108.12279 | 35913 ft | 477 kts | 180° |
| 2026-04-21 15:15 | 12.59174 | 108.12142 | 35912 ft | 476 kts | 180° |
| 2026-04-21 15:16 | 12.52597 | 108.12015 | 35917 ft | 475 kts | 180° |
| 2026-04-21 15:16 | 12.45984 | 108.11885 | 35919 ft | 475 kts | 180° |
| 2026-04-21 15:17 | 12.39382 | 108.11753 | 35914 ft | 474 kts | 180° |
| 2026-04-21 15:17 | 12.32784 | 108.11621 | 35927 ft | 474 kts | 180° |
| 2026-04-21 15:18 | 12.26182 | 108.11489 | 35934 ft | 474 kts | 180° |
| 2026-04-21 15:18 | 12.19578 | 108.11357 | 35935 ft | 475 kts | 180° |
| 2026-04-21 15:19 | 12.12973 | 108.11225 | 35943 ft | 475 kts | 180° |
| 2026-04-21 15:19 | 12.06371 | 108.11093 | 35945 ft | 474 kts | 180° |
| 2026-04-21 15:20 | 11.99774 | 108.10961 | 35948 ft | 475 kts | 180° |
| 2026-04-21 15:20 | 11.93217 | 108.11354 | 35949 ft | 471 kts | 161° |
| 2026-04-21 15:21 | 11.90234 | 108.12678 | 35949 ft | 467 kts | 146° |
| 2026-04-21 15:21 | 11.87713 | 108.14724 | 35972 ft | 462 kts | 133° |
| 2026-04-21 15:21 | 11.83277 | 108.19478 | 35973 ft | 463 kts | 131° |
| 2026-04-21 15:22 | 11.78830 | 108.24235 | 35962 ft | 464 kts | 132° |
| 2026-04-21 15:22 | 11.74274 | 108.28853 | 35959 ft | 466 kts | 140° |
| 2026-04-21 15:23 | 11.68881 | 108.32558 | 35966 ft | 468 kts | 146° |
| 2026-04-21 15:23 | 11.63377 | 108.36119 | 35959 ft | 469 kts | 145° |
| 2026-04-21 15:24 | 11.57928 | 108.39790 | 35907 ft | 470 kts | 144° |
| 2026-04-21 15:24 | 11.55194 | 108.41632 | 35636 ft | 471 kts | 147° |
| 2026-04-21 15:24 | 11.52250 | 108.43071 | 35347 ft | 469 kts | 162° |
| 2026-04-21 15:25 | 11.49052 | 108.43637 | 34819 ft | 469 kts | 179° |
| 2026-04-21 15:25 | 11.45801 | 108.43257 | 34097 ft | 474 kts | 195° |
| 2026-04-21 15:25 | 11.42756 | 108.41955 | 33376 ft | 477 kts | 212° |
| 2026-04-21 15:25 | 11.40172 | 108.39874 | 32884 ft | 472 kts | 227° |
| 2026-04-21 15:26 | 11.38195 | 108.37252 | 32511 ft | 463 kts | 243° |
| 2026-04-21 15:26 | 11.36902 | 108.34291 | 32048 ft | 453 kts | 250° |
| 2026-04-21 15:26 | 11.35798 | 108.31302 | 31361 ft | 451 kts | 251° |
| 2026-04-21 15:26 | 11.34731 | 108.28286 | 30862 ft | 450 kts | 251° |
| 2026-04-21 15:27 | 11.33682 | 108.25318 | 30580 ft | 444 kts | 251° |
| 2026-04-21 15:27 | 11.32622 | 108.22360 | 30068 ft | 444 kts | 251° |
| 2026-04-21 15:27 | 11.31550 | 108.19417 | 29509 ft | 443 kts | 250° |
| 2026-04-21 15:27 | 11.30472 | 108.16493 | 29078 ft | 438 kts | 250° |
| 2026-04-21 15:28 | 11.29399 | 108.13608 | 28445 ft | 434 kts | 250° |
| 2026-04-21 15:28 | 11.28330 | 108.10742 | 27694 ft | 431 kts | 250° |
| 2026-04-21 15:28 | 11.27267 | 108.07902 | 26960 ft | 427 kts | 250° |
| 2026-04-21 15:28 | 11.26217 | 108.05092 | 26254 ft | 423 kts | 250° |
| 2026-04-21 15:29 | 11.25174 | 108.02304 | 25561 ft | 419 kts | 250° |
| 2026-04-21 15:29 | 11.24142 | 107.99545 | 24889 ft | 416 kts | 250° |
| 2026-04-21 15:29 | 11.23114 | 107.96796 | 24126 ft | 415 kts | 250° |
| 2026-04-21 15:29 | 11.22087 | 107.94050 | 23352 ft | 414 kts | 250° |
| 2026-04-21 15:30 | 11.21063 | 107.91312 | 22467 ft | 413 kts | 250° |
| 2026-04-21 15:30 | 11.20044 | 107.88587 | 21598 ft | 411 kts | 249° |
| 2026-04-21 15:30 | 11.19027 | 107.85870 | 20754 ft | 409 kts | 249° |
| 2026-04-21 15:30 | 11.18018 | 107.83177 | 19946 ft | 406 kts | 249° |
| 2026-04-21 15:31 | 11.17016 | 107.80500 | 19149 ft | 403 kts | 249° |
| 2026-04-21 15:31 | 11.16023 | 107.77848 | 18369 ft | 399 kts | 249° |
| 2026-04-21 15:31 | 11.15038 | 107.75219 | 17509 ft | 396 kts | 249° |
| 2026-04-21 15:31 | 11.14060 | 107.72612 | 16611 ft | 392 kts | 249° |
| 2026-04-21 15:32 | 11.13089 | 107.70023 | 15646 ft | 392 kts | 249° |
| 2026-04-21 15:32 | 11.12118 | 107.67433 | 14731 ft | 391 kts | 249° |
| 2026-04-21 15:32 | 11.11181 | 107.64935 | 14484 ft | 372 kts | 249° |
| 2026-04-21 15:32 | 11.10268 | 107.62505 | 14241 ft | 363 kts | 249° |
| 2026-04-21 15:33 | 11.09377 | 107.60131 | 13995 ft | 355 kts | 249° |
| 2026-04-21 15:33 | 11.08502 | 107.57801 | 13678 ft | 351 kts | 249° |
| 2026-04-21 15:33 | 11.07633 | 107.55484 | 13273 ft | 348 kts | 249° |
| 2026-04-21 15:33 | 11.06770 | 107.53188 | 12891 ft | 346 kts | 249° |
| 2026-04-21 15:34 | 11.05914 | 107.50908 | 12496 ft | 344 kts | 249° |
| 2026-04-21 15:34 | 11.05060 | 107.48636 | 12117 ft | 343 kts | 249° |
| 2026-04-21 15:34 | 11.04211 | 107.46375 | 11728 ft | 341 kts | 249° |
| 2026-04-21 15:34 | 11.03365 | 107.44123 | 11373 ft | 340 kts | 249° |
| 2026-04-21 15:35 | 11.02531 | 107.41910 | 11212 ft | 331 kts | 249° |
| 2026-04-21 15:35 | 11.01719 | 107.39751 | 11070 ft | 322 kts | 249° |
| 2026-04-21 15:35 | 11.00972 | 107.37618 | 10826 ft | 319 kts | 252° |
| 2026-04-21 15:35 | 11.00392 | 107.35447 | 10523 ft | 317 kts | 256° |
| 2026-04-21 15:36 | 10.99901 | 107.33267 | 10214 ft | 315 kts | 257° |
| 2026-04-21 15:36 | 10.99433 | 107.31087 | 9920 ft | 313 kts | 257° |
| 2026-04-21 15:36 | 10.98979 | 107.28970 | 9929 ft | 299 kts | 258° |
| 2026-04-21 15:36 | 10.98534 | 107.26921 | 9398 ft | 307 kts | 257° |
| 2026-04-21 15:37 | 10.98068 | 107.24804 | 9018 ft | 308 kts | 257° |
| 2026-04-21 15:37 | 10.97596 | 107.22678 | 8701 ft | 307 kts | 257° |
| 2026-04-21 15:37 | 10.97125 | 107.20572 | 8401 ft | 303 kts | 257° |
| 2026-04-21 15:37 | 10.96662 | 107.18510 | 8089 ft | 294 kts | 257° |
| 2026-04-21 15:38 | 10.96212 | 107.16515 | 7821 ft | 283 kts | 257° |
| 2026-04-21 15:38 | 10.95784 | 107.14612 | 7568 ft | 268 kts | 258° |
| 2026-04-21 15:38 | 10.95372 | 107.12784 | 7283 ft | 265 kts | 258° |
| 2026-04-21 15:38 | 10.94961 | 107.10960 | 7026 ft | 265 kts | 257° |
| 2026-04-21 15:39 | 10.94545 | 107.09143 | 6801 ft | 264 kts | 258° |
| 2026-04-21 15:39 | 10.94136 | 107.07314 | 6524 ft | 266 kts | 258° |
| 2026-04-21 15:39 | 10.93720 | 107.05471 | 6250 ft | 269 kts | 258° |
| 2026-04-21 15:39 | 10.93300 | 107.03616 | 5994 ft | 269 kts | 258° |
| 2026-04-21 15:40 | 10.92880 | 107.01763 | 5717 ft | 268 kts | 258° |
| 2026-04-21 15:40 | 10.92462 | 106.99915 | 5450 ft | 267 kts | 258° |
| 2026-04-21 15:40 | 10.92044 | 106.98076 | 5207 ft | 267 kts | 257° |
| 2026-04-21 15:40 | 10.91624 | 106.96227 | 4923 ft | 268 kts | 257° |
| 2026-04-21 15:41 | 10.91205 | 106.94379 | 4687 ft | 268 kts | 257° |
| 2026-04-21 15:41 | 10.90793 | 106.92551 | 4447 ft | 261 kts | 257° |
| 2026-04-21 15:41 | 10.90389 | 106.90762 | 4149 ft | 257 kts | 256° |
| 2026-04-21 15:41 | 10.89993 | 106.89014 | 4035 ft | 249 kts | 256° |
| 2026-04-21 15:42 | 10.89610 | 106.87334 | 3990 ft | 238 kts | 256° |
| 2026-04-21 15:42 | 10.89232 | 106.85673 | 3499 ft | 244 kts | 256° |
| 2026-04-21 15:42 | 10.88843 | 106.84018 | 3184 ft | 238 kts | 255° |
| 2026-04-21 15:42 | 10.88461 | 106.82417 | 2978 ft | 228 kts | 252° |
| 2026-04-21 15:43 | 10.87965 | 106.80903 | 2829 ft | 220 kts | 246° |
| 2026-04-21 15:43 | 10.87440 | 106.79498 | 2621 ft | 205 kts | 245° |
| 2026-04-21 15:43 | 10.86934 | 106.78201 | 2425 ft | 191 kts | 244° |
| 2026-04-21 15:43 | 10.86478 | 106.76942 | 2164 ft | 186 kts | 246° |
| 2026-04-21 15:44 | 10.86035 | 106.75738 | 1918 ft | 176 kts | 243° |
| 2026-04-21 15:44 | 10.85597 | 106.74604 | 1684 ft | 171 kts | 244° |
| 2026-04-21 15:44 | 10.85331 | 106.73869 | 1526 ft | 164 kts | 246° |
| 2026-04-21 15:44 | 10.84939 | 106.72809 | 1329 ft | 159 kts | 245° |
| 2026-04-21 15:45 | 10.84408 | 106.71435 | 1059 ft | 154 kts | 244° |
| 2026-04-21 15:45 | 10.84154 | 106.70764 | 935 ft | 154 kts | 245° |
| 2026-04-21 15:45 | 10.83777 | 106.69759 | 746 ft | 149 kts | 246° |
| 2026-04-21 15:45 | 10.83409 | 106.68778 | 576 ft | 148 kts | 245° |
| 2026-04-21 15:46 | 10.83040 | 106.67798 | 379 ft | 149 kts | 247° |
| 2026-04-21 15:46 | 10.82673 | 106.66817 | 194 ft | 149 kts | 248° |
| 2026-04-21 15:46 | 10.82304 | 106.65833 | 41 ft | 144 kts | 249° |
| 2026-04-21 15:46 | 10.82015 | 106.65074 | 32 ft | 83 kts | 249° |
| 2026-04-21 15:47 | 10.81862 | 106.64668 | 35 ft | 55 kts | 249° |
| 2026-04-21 15:47 | 10.81736 | 106.64416 | 35 ft | 31 kts | 227° |
| 2026-04-21 15:47 | 10.81638 | 106.64328 | 33 ft | 5 kts | 219° |
| 2026-04-21 15:47 | 10.81635 | 106.64326 | 34 ft | 0 kts | 219° |
| 2026-04-21 15:48 | 10.81626 | 106.64319 | 34 ft | 6 kts | 219° |
| 2026-04-21 15:48 | 10.81557 | 106.64294 | 35 ft | 16 kts | 181° |
| 2026-04-21 15:49 | 10.81439 | 106.64331 | 37 ft | 18 kts | 159° |
| 2026-04-21 15:49 | 10.81322 | 106.64376 | 36 ft | 18 kts | 159° |
| 2026-04-21 15:49 | 10.81250 | 106.64455 | 36 ft | 16 kts | 82° |
| 2026-04-21 15:49 | 10.81290 | 106.64561 | 39 ft | 16 kts | 69° |
| 2026-04-21 15:50 | 10.81328 | 106.64663 | 39 ft | 15 kts | 69° |
| 2026-04-21 15:50 | 10.81365 | 106.64761 | 39 ft | 15 kts | 69° |
| 2026-04-21 15:50 | 10.81400 | 106.64853 | 42 ft | 14 kts | 69° |
| 2026-04-21 15:50 | 10.81429 | 106.64928 | 41 ft | 7 kts | 69° |
| 2026-04-21 15:51 | 10.81448 | 106.64979 | 38 ft | 9 kts | 69° |
| 2026-04-21 15:51 | 10.81476 | 106.65050 | 38 ft | 13 kts | 69° |
| 2026-04-21 15:51 | 10.81516 | 106.65155 | 37 ft | 19 kts | 68° |
| 2026-04-21 15:51 | 10.81576 | 106.65310 | 35 ft | 26 kts | 69° |
| 2026-04-21 15:52 | 10.81640 | 106.65485 | 34 ft | 26 kts | 70° |
| 2026-04-21 15:52 | 10.81700 | 106.65648 | 35 ft | 24 kts | 69° |
| 2026-04-21 15:52 | 10.81718 | 106.65761 | 32 ft | 14 kts | 109° |
| 2026-04-21 15:52 | 10.81682 | 106.65853 | 33 ft | 14 kts | 105° |
| 2026-04-21 15:53 | 10.81699 | 106.65945 | 36 ft | 13 kts | 71° |
| 2026-04-21 15:53 | 10.81722 | 106.66030 | 36 ft | 11 kts | 102° |
| 2026-04-21 15:53 | 10.81653 | 106.66053 | 36 ft | 11 kts | 185° |
| 2026-04-21 15:53 | 10.81577 | 106.66045 | 36 ft | 11 kts | 186° |
| 2026-04-21 15:54 | 10.81527 | 106.66083 | 36 ft | 9 kts | 102° |
| 2026-04-21 15:54 | 10.81521 | 106.66135 | 36 ft | 0 kts | 95° |
| 2026-04-21 15:54 | 10.81521 | 106.66136 | 36 ft | 1 kts | 95° |
| 2026-04-21 15:54 | 10.81521 | 106.66137 | 36 ft | 0 kts | 95° |